sensor_id;sensor_type;location;lat;lon;timestamp;temperature;humidity
42663;DHT22;44330;51.360;6.686;2023-04-01T00:00:55;10.30;91.70
42663;DHT22;44330;51.360;6.686;2023-04-01T00:03:22;10.40;91.40
42663;DHT22;44330;51.360;6.686;2023-04-01T00:05:48;10.40;91.30
42663;DHT22;44330;51.360;6.686;2023-04-01T00:08:14;10.40;91.30
42663;DHT22;44330;51.360;6.686;2023-04-01T00:10:40;10.40;91.50
42663;DHT22;44330;51.360;6.686;2023-04-01T00:13:06;10.40;90.60
42663;DHT22;44330;51.360;6.686;2023-04-01T00:15:32;10.40;91.10
42663;DHT22;44330;51.360;6.686;2023-04-01T00:17:57;10.40;91.40
42663;DHT22;44330;51.360;6.686;2023-04-01T00:20:24;10.40;91.70
42663;DHT22;44330;51.360;6.686;2023-04-01T00:22:50;10.30;92.20
42663;DHT22;44330;51.360;6.686;2023-04-01T00:25:16;10.30;92.20
42663;DHT22;44330;51.360;6.686;2023-04-01T00:27:42;10.30;92.50
42663;DHT22;44330;51.360;6.686;2023-04-01T00:30:08;10.30;92.60
42663;DHT22;44330;51.360;6.686;2023-04-01T00:32:34;10.30;93.00
42663;DHT22;44330;51.360;6.686;2023-04-01T00:35:00;10.30;92.90
42663;DHT22;44330;51.360;6.686;2023-04-01T00:37:26;10.20;93.10
42663;DHT22;44330;51.360;6.686;2023-04-01T00:39:53;10.20;93.30
42663;DHT22;44330;51.360;6.686;2023-04-01T00:42:18;10.20;93.00
42663;DHT22;44330;51.360;6.686;2023-04-01T00:44:47;10.30;92.80
42663;DHT22;44330;51.360;6.686;2023-04-01T00:47:15;10.20;92.90
42663;DHT22;44330;51.360;6.686;2023-04-01T00:49:44;10.20;93.20
42663;DHT22;44330;51.360;6.686;2023-04-01T00:52:13;10.20;92.90
42663;DHT22;44330;51.360;6.686;2023-04-01T00:54:41;10.20;92.80
42663;DHT22;44330;51.360;6.686;2023-04-01T00:57:25;10.20;92.70
42663;DHT22;44330;51.360;6.686;2023-04-01T00:59:54;10.30;92.70
42663;DHT22;44330;51.360;6.686;2023-04-01T01:02:22;10.20;92.80
42663;DHT22;44330;51.360;6.686;2023-04-01T01:04:48;10.20;92.80
42663;DHT22;44330;51.360;6.686;2023-04-01T01:07:38;10.20;92.60
42663;DHT22;44330;51.360;6.686;2023-04-01T01:18:24;10.20;92.60
42663;DHT22;44330;51.360;6.686;2023-04-01T01:20:57;10.20;92.40
42663;DHT22;44330;51.360;6.686;2023-04-01T01:32:30;10.10;92.20
42663;DHT22;44330;51.360;6.686;2023-04-01T01:37:31;10.20;91.60
42663;DHT22;44330;51.360;6.686;2023-04-01T01:40:05;10.20;91.70
42663;DHT22;44330;51.360;6.686;2023-04-01T01:42:33;10.10;91.70
42663;DHT22;44330;51.360;6.686;2023-04-01T01:45:01;10.20;91.60
42663;DHT22;44330;51.360;6.686;2023-04-01T01:47:28;10.30;91.30
42663;DHT22;44330;51.360;6.686;2023-04-01T01:49:55;10.20;91.00
42663;DHT22;44330;51.360;6.686;2023-04-01T01:52:22;10.20;91.50
42663;DHT22;44330;51.360;6.686;2023-04-01T01:54:49;10.30;91.30
42663;DHT22;44330;51.360;6.686;2023-04-01T01:57:17;10.30;91.70
42663;DHT22;44330;51.360;6.686;2023-04-01T01:59:46;10.30;91.60
42663;DHT22;44330;51.360;6.686;2023-04-01T02:02:13;10.20;91.50
42663;DHT22;44330;51.360;6.686;2023-04-01T02:04:41;10.20;91.80
42663;DHT22;44330;51.360;6.686;2023-04-01T02:07:27;10.20;92.00
42663;DHT22;44330;51.360;6.686;2023-04-01T02:09:55;10.20;92.00
42663;DHT22;44330;51.360;6.686;2023-04-01T02:12:21;10.10;92.10
42663;DHT22;44330;51.360;6.686;2023-04-01T02:14:55;10.10;92.60
42663;DHT22;44330;51.360;6.686;2023-04-01T02:17:33;10.20;92.30
42663;DHT22;44330;51.360;6.686;2023-04-01T02:20:05;10.20;92.00
42663;DHT22;44330;51.360;6.686;2023-04-01T02:22:39;10.20;92.00
42663;DHT22;44330;51.360;6.686;2023-04-01T02:25:16;10.20;92.10
42663;DHT22;44330;51.360;6.686;2023-04-01T02:27:43;10.10;92.20
42663;DHT22;44330;51.360;6.686;2023-04-01T02:30:11;10.20;93.00
42663;DHT22;44330;51.360;6.686;2023-04-01T02:32:38;10.10;93.20
42663;DHT22;44330;51.360;6.686;2023-04-01T02:35:09;10.10;93.40
42663;DHT22;44330;51.360;6.686;2023-04-01T02:37:36;10.10;93.70
42663;DHT22;44330;51.360;6.686;2023-04-01T02:40:06;10.00;93.90
42663;DHT22;44330;51.360;6.686;2023-04-01T02:42:33;10.00;93.70
42663;DHT22;44330;51.360;6.686;2023-04-01T02:44:59;10.00;93.80
42663;DHT22;44330;51.360;6.686;2023-04-01T02:47:24;10.00;93.90
42663;DHT22;44330;51.360;6.686;2023-04-01T02:49:50;10.00;93.90
42663;DHT22;44330;51.360;6.686;2023-04-01T02:52:16;10.00;93.90
42663;DHT22;44330;51.360;6.686;2023-04-01T02:54:41;10.00;93.80
42663;DHT22;44330;51.360;6.686;2023-04-01T02:57:07;10.00;93.90
42663;DHT22;44330;51.360;6.686;2023-04-01T02:59:32;10.00;94.00
42663;DHT22;44330;51.360;6.686;2023-04-01T03:01:58;10.00;94.20
42663;DHT22;44330;51.360;6.686;2023-04-01T03:04:24;10.00;94.20
42663;DHT22;44330;51.360;6.686;2023-04-01T03:06:49;10.00;94.30
42663;DHT22;44330;51.360;6.686;2023-04-01T03:09:15;10.00;94.20
42663;DHT22;44330;51.360;6.686;2023-04-01T03:11:41;10.00;94.30
42663;DHT22;44330;51.360;6.686;2023-04-01T03:14:06;10.00;94.30
42663;DHT22;44330;51.360;6.686;2023-04-01T03:16:32;10.00;94.30
42663;DHT22;44330;51.360;6.686;2023-04-01T03:18:58;10.00;94.40
42663;DHT22;44330;51.360;6.686;2023-04-01T03:21:25;10.00;94.50
42663;DHT22;44330;51.360;6.686;2023-04-01T03:23:50;9.90;94.60
42663;DHT22;44330;51.360;6.686;2023-04-01T03:26:16;9.90;94.60
42663;DHT22;44330;51.360;6.686;2023-04-01T03:28:43;9.90;94.70
42663;DHT22;44330;51.360;6.686;2023-04-01T03:31:08;10.00;94.60
42663;DHT22;44330;51.360;6.686;2023-04-01T03:33:34;9.90;94.60
42663;DHT22;44330;51.360;6.686;2023-04-01T03:36:00;9.90;94.80
42663;DHT22;44330;51.360;6.686;2023-04-01T03:38:25;9.90;94.80
42663;DHT22;44330;51.360;6.686;2023-04-01T03:40:51;9.90;94.80
42663;DHT22;44330;51.360;6.686;2023-04-01T03:43:16;9.90;94.70
42663;DHT22;44330;51.360;6.686;2023-04-01T03:45:46;9.90;94.60
42663;DHT22;44330;51.360;6.686;2023-04-01T03:48:14;9.90;94.60
42663;DHT22;44330;51.360;6.686;2023-04-01T03:50:40;9.90;94.70
42663;DHT22;44330;51.360;6.686;2023-04-01T03:53:05;10.00;94.70
42663;DHT22;44330;51.360;6.686;2023-04-01T03:55:31;10.00;94.80
42663;DHT22;44330;51.360;6.686;2023-04-01T03:57:57;10.00;94.70
42663;DHT22;44330;51.360;6.686;2023-04-01T04:00:22;9.90;94.60
42663;DHT22;44330;51.360;6.686;2023-04-01T04:02:48;10.00;94.50
42663;DHT22;44330;51.360;6.686;2023-04-01T04:05:13;10.00;94.50
42663;DHT22;44330;51.360;6.686;2023-04-01T04:07:39;10.00;94.30
42663;DHT22;44330;51.360;6.686;2023-04-01T04:10:06;10.00;94.20
42663;DHT22;44330;51.360;6.686;2023-04-01T04:12:32;10.00;94.30
42663;DHT22;44330;51.360;6.686;2023-04-01T04:14:57;10.00;94.40
42663;DHT22;44330;51.360;6.686;2023-04-01T04:17:23;10.00;94.40
42663;DHT22;44330;51.360;6.686;2023-04-01T04:19:48;10.00;94.30
42663;DHT22;44330;51.360;6.686;2023-04-01T04:22:14;10.00;94.30
42663;DHT22;44330;51.360;6.686;2023-04-01T04:24:40;10.10;93.90
42663;DHT22;44330;51.360;6.686;2023-04-01T04:27:05;10.10;93.60
42663;DHT22;44330;51.360;6.686;2023-04-01T04:29:31;10.10;93.70
42663;DHT22;44330;51.360;6.686;2023-04-01T04:31:57;10.10;93.90
42663;DHT22;44330;51.360;6.686;2023-04-01T04:34:22;10.10;93.80
42663;DHT22;44330;51.360;6.686;2023-04-01T04:36:48;10.00;94.00
42663;DHT22;44330;51.360;6.686;2023-04-01T04:39:14;10.00;93.90
42663;DHT22;44330;51.360;6.686;2023-04-01T04:41:41;10.00;94.00
42663;DHT22;44330;51.360;6.686;2023-04-01T04:44:07;10.00;94.20
42663;DHT22;44330;51.360;6.686;2023-04-01T04:46:33;10.10;94.20
42663;DHT22;44330;51.360;6.686;2023-04-01T04:48:58;10.10;94.30
42663;DHT22;44330;51.360;6.686;2023-04-01T04:51:25;10.00;94.40
42663;DHT22;44330;51.360;6.686;2023-04-01T04:53:51;10.00;94.70
42663;DHT22;44330;51.360;6.686;2023-04-01T04:56:21;10.00;94.80
42663;DHT22;44330;51.360;6.686;2023-04-01T04:58:47;10.00;94.80
42663;DHT22;44330;51.360;6.686;2023-04-01T05:01:15;10.00;94.80
42663;DHT22;44330;51.360;6.686;2023-04-01T05:03:41;10.00;94.90
42663;DHT22;44330;51.360;6.686;2023-04-01T05:06:09;10.00;95.00
42663;DHT22;44330;51.360;6.686;2023-04-01T05:08:35;9.90;95.10
42663;DHT22;44330;51.360;6.686;2023-04-01T05:11:01;10.00;95.10
42663;DHT22;44330;51.360;6.686;2023-04-01T05:13:28;10.00;95.00
42663;DHT22;44330;51.360;6.686;2023-04-01T05:15:54;10.00;94.90
42663;DHT22;44330;51.360;6.686;2023-04-01T05:18:20;10.00;95.00
42663;DHT22;44330;51.360;6.686;2023-04-01T05:20:50;9.90;95.00
42663;DHT22;44330;51.360;6.686;2023-04-01T05:23:16;9.90;95.10
42663;DHT22;44330;51.360;6.686;2023-04-01T05:25:43;10.00;95.00
42663;DHT22;44330;51.360;6.686;2023-04-01T05:28:08;9.90;95.10
42663;DHT22;44330;51.360;6.686;2023-04-01T05:30:34;9.90;95.20
42663;DHT22;44330;51.360;6.686;2023-04-01T05:32:59;10.00;95.10
42663;DHT22;44330;51.360;6.686;2023-04-01T05:35:26;10.00;95.10
42663;DHT22;44330;51.360;6.686;2023-04-01T05:37:51;10.00;94.80
42663;DHT22;44330;51.360;6.686;2023-04-01T05:40:17;9.90;94.80
42663;DHT22;44330;51.360;6.686;2023-04-01T05:42:42;9.90;95.10
42663;DHT22;44330;51.360;6.686;2023-04-01T05:45:08;9.90;95.10
42663;DHT22;44330;51.360;6.686;2023-04-01T05:47:34;9.90;95.00
42663;DHT22;44330;51.360;6.686;2023-04-01T05:50:00;9.90;95.10
42663;DHT22;44330;51.360;6.686;2023-04-01T05:52:25;10.00;95.00
42663;DHT22;44330;51.360;6.686;2023-04-01T05:54:51;10.00;94.80
42663;DHT22;44330;51.360;6.686;2023-04-01T05:57:16;9.90;94.90
42663;DHT22;44330;51.360;6.686;2023-04-01T05:59:42;9.90;95.10
42663;DHT22;44330;51.360;6.686;2023-04-01T06:02:09;9.90;95.20
42663;DHT22;44330;51.360;6.686;2023-04-01T06:04:38;9.90;95.20
42663;DHT22;44330;51.360;6.686;2023-04-01T06:07:15;9.90;95.20
42663;DHT22;44330;51.360;6.686;2023-04-01T06:09:41;9.90;95.30
42663;DHT22;44330;51.360;6.686;2023-04-01T06:23:20;10.00;95.10
42663;DHT22;44330;51.360;6.686;2023-04-01T06:29:01;9.90;95.30
42663;DHT22;44330;51.360;6.686;2023-04-01T06:42:46;9.90;95.40
42663;DHT22;44330;51.360;6.686;2023-04-01T06:45:32;10.00;95.30
42663;DHT22;44330;51.360;6.686;2023-04-01T06:48:23;10.00;95.30
42663;DHT22;44330;51.360;6.686;2023-04-01T06:53:56;10.00;95.50
42663;DHT22;44330;51.360;6.686;2023-04-01T06:56:28;10.00;95.50
42663;DHT22;44330;51.360;6.686;2023-04-01T06:59:30;10.00;95.40
42663;DHT22;44330;51.360;6.686;2023-04-01T07:02:05;10.00;95.40
42663;DHT22;44330;51.360;6.686;2023-04-01T07:04:40;10.00;95.20
42663;DHT22;44330;51.360;6.686;2023-04-01T07:07:35;10.00;95.50
42663;DHT22;44330;51.360;6.686;2023-04-01T07:10:15;10.00;95.40
42663;DHT22;44330;51.360;6.686;2023-04-01T07:12:51;10.00;95.10
42663;DHT22;44330;51.360;6.686;2023-04-01T07:15:22;10.00;95.10
42663;DHT22;44330;51.360;6.686;2023-04-01T07:17:56;10.00;95.10
42663;DHT22;44330;51.360;6.686;2023-04-01T07:20:29;10.00;95.20
42663;DHT22;44330;51.360;6.686;2023-04-01T07:23:00;10.00;95.20
42663;DHT22;44330;51.360;6.686;2023-04-01T07:25:39;10.00;95.40
42663;DHT22;44330;51.360;6.686;2023-04-01T07:28:13;10.10;95.00
42663;DHT22;44330;51.360;6.686;2023-04-01T07:34:10;10.10;94.70
42663;DHT22;44330;51.360;6.686;2023-04-01T07:36:51;10.10;95.10
42663;DHT22;44330;51.360;6.686;2023-04-01T07:47:22;10.20;94.90
42663;DHT22;44330;51.360;6.686;2023-04-01T07:50:14;10.20;94.20
42663;DHT22;44330;51.360;6.686;2023-04-01T07:55:36;10.30;94.60
42663;DHT22;44330;51.360;6.686;2023-04-01T07:58:08;10.30;94.40
42663;DHT22;44330;51.360;6.686;2023-04-01T08:00:50;10.20;94.40
42663;DHT22;44330;51.360;6.686;2023-04-01T08:03:30;10.30;94.60
42663;DHT22;44330;51.360;6.686;2023-04-01T08:06:32;10.30;94.50
42663;DHT22;44330;51.360;6.686;2023-04-01T08:09:21;10.30;94.70
42663;DHT22;44330;51.360;6.686;2023-04-01T08:17:55;10.40;94.50
42663;DHT22;44330;51.360;6.686;2023-04-01T08:22:59;10.40;95.00
42663;DHT22;44330;51.360;6.686;2023-04-01T08:25:28;10.40;94.90
42663;DHT22;44330;51.360;6.686;2023-04-01T08:31:26;10.50;94.70
42663;DHT22;44330;51.360;6.686;2023-04-01T08:33:44;10.40;94.70
42663;DHT22;44330;51.360;6.686;2023-04-01T08:36:25;10.50;94.80
42663;DHT22;44330;51.360;6.686;2023-04-01T08:38:57;10.50;94.40
42663;DHT22;44330;51.360;6.686;2023-04-01T08:47:20;10.60;94.20
42663;DHT22;44330;51.360;6.686;2023-04-01T08:52:36;10.60;94.70
42663;DHT22;44330;51.360;6.686;2023-04-01T09:03:25;10.70;94.20
42663;DHT22;44330;51.360;6.686;2023-04-01T09:06:22;10.70;94.40
42663;DHT22;44330;51.360;6.686;2023-04-01T09:30:48;10.90;92.60
42663;DHT22;44330;51.360;6.686;2023-04-01T09:33:06;11.00;92.40
42663;DHT22;44330;51.360;6.686;2023-04-01T09:35:48;11.00;92.50
42663;DHT22;44330;51.360;6.686;2023-04-01T09:38:28;11.00;92.60
42663;DHT22;44330;51.360;6.686;2023-04-01T09:41:07;10.90;93.00
42663;DHT22;44330;51.360;6.686;2023-04-01T09:44:28;11.00;93.00
42663;DHT22;44330;51.360;6.686;2023-04-01T09:53:06;11.20;92.00
42663;DHT22;44330;51.360;6.686;2023-04-01T09:55:55;11.10;91.50
42663;DHT22;44330;51.360;6.686;2023-04-01T09:58:59;11.10;90.70
42663;DHT22;44330;51.360;6.686;2023-04-01T10:01:31;11.10;91.60
42663;DHT22;44330;51.360;6.686;2023-04-01T10:07:22;11.20;92.30
42663;DHT22;44330;51.360;6.686;2023-04-01T10:21:04;11.20;93.00
42663;DHT22;44330;51.360;6.686;2023-04-01T10:23:53;11.10;92.90
42663;DHT22;44330;51.360;6.686;2023-04-01T10:26:45;11.10;93.20
42663;DHT22;44330;51.360;6.686;2023-04-01T10:29:37;11.10;93.30
42663;DHT22;44330;51.360;6.686;2023-04-01T10:38:00;11.00;93.30
42663;DHT22;44330;51.360;6.686;2023-04-01T10:40:39;11.00;93.50
42663;DHT22;44330;51.360;6.686;2023-04-01T10:43:19;11.10;93.50
42663;DHT22;44330;51.360;6.686;2023-04-01T11:00:55;11.10;93.60
42663;DHT22;44330;51.360;6.686;2023-04-01T11:09:20;11.10;93.70
42663;DHT22;44330;51.360;6.686;2023-04-01T11:23:04;11.10;93.50
42663;DHT22;44330;51.360;6.686;2023-04-01T11:29:03;11.20;94.60
42663;DHT22;44330;51.360;6.686;2023-04-01T11:31:57;11.40;95.00
42663;DHT22;44330;51.360;6.686;2023-04-01T11:37:35;11.50;93.80
42663;DHT22;44330;51.360;6.686;2023-04-01T11:40:08;11.50;93.70
42663;DHT22;44330;51.360;6.686;2023-04-01T11:42:40;11.60;93.70
42663;DHT22;44330;51.360;6.686;2023-04-01T11:47:47;11.50;92.00
42663;DHT22;44330;51.360;6.686;2023-04-01T11:50:50;11.40;92.60
42663;DHT22;44330;51.360;6.686;2023-04-01T11:58:43;11.40;93.50
42663;DHT22;44330;51.360;6.686;2023-04-01T12:01:33;11.30;92.90
42663;DHT22;44330;51.360;6.686;2023-04-01T12:04:27;11.40;93.10
42663;DHT22;44330;51.360;6.686;2023-04-01T12:12:34;11.40;93.00
42663;DHT22;44330;51.360;6.686;2023-04-01T12:15:16;11.50;93.10
42663;DHT22;44330;51.360;6.686;2023-04-01T12:38:06;11.70;92.60
42663;DHT22;44330;51.360;6.686;2023-04-01T12:41:54;11.70;92.50
42663;DHT22;44330;51.360;6.686;2023-04-01T12:47:00;11.80;92.00
42663;DHT22;44330;51.360;6.686;2023-04-01T12:55:38;11.80;92.50
42663;DHT22;44330;51.360;6.686;2023-04-01T13:20:19;11.70;91.40
42663;DHT22;44330;51.360;6.686;2023-04-01T13:23:00;11.60;92.10
42663;DHT22;44330;51.360;6.686;2023-04-01T13:25:35;11.60;92.20
42663;DHT22;44330;51.360;6.686;2023-04-01T13:28:24;11.60;91.50
42663;DHT22;44330;51.360;6.686;2023-04-01T13:34:17;11.50;92.40
42663;DHT22;44330;51.360;6.686;2023-04-01T13:36:51;11.50;92.20
42663;DHT22;44330;51.360;6.686;2023-04-01T13:42:21;11.50;92.30
42663;DHT22;44330;51.360;6.686;2023-04-01T13:56:12;11.60;92.10
42663;DHT22;44330;51.360;6.686;2023-04-01T14:06:49;11.60;91.50
42663;DHT22;44330;51.360;6.686;2023-04-01T14:15:34;11.70;90.80
42663;DHT22;44330;51.360;6.686;2023-04-01T14:21:02;11.70;91.40
42663;DHT22;44330;51.360;6.686;2023-04-01T14:23:57;11.70;91.00
42663;DHT22;44330;51.360;6.686;2023-04-01T14:29:29;11.70;91.60
42663;DHT22;44330;51.360;6.686;2023-04-01T14:49:44;11.50;92.00
42663;DHT22;44330;51.360;6.686;2023-04-01T14:54:52;11.40;92.10
42663;DHT22;44330;51.360;6.686;2023-04-01T15:03:02;11.40;92.40
42663;DHT22;44330;51.360;6.686;2023-04-01T15:05:45;11.40;92.50
42663;DHT22;44330;51.360;6.686;2023-04-01T15:08:27;11.30;92.60
42663;DHT22;44330;51.360;6.686;2023-04-01T15:13:37;11.30;93.00
42663;DHT22;44330;51.360;6.686;2023-04-01T15:18:56;11.30;92.50
42663;DHT22;44330;51.360;6.686;2023-04-01T15:21:52;11.30;92.30
42663;DHT22;44330;51.360;6.686;2023-04-01T15:24:24;11.20;92.90
42663;DHT22;44330;51.360;6.686;2023-04-01T15:29:55;11.20;93.70
42663;DHT22;44330;51.360;6.686;2023-04-01T15:35:24;11.20;93.80
42663;DHT22;44330;51.360;6.686;2023-04-01T15:38:38;11.20;93.50
42663;DHT22;44330;51.360;6.686;2023-04-01T15:41:20;11.10;93.40
42663;DHT22;44330;51.360;6.686;2023-04-01T15:43:49;11.10;94.10
42663;DHT22;44330;51.360;6.686;2023-04-01T15:46:36;11.10;94.40
42663;DHT22;44330;51.360;6.686;2023-04-01T15:49:28;11.10;94.20
42663;DHT22;44330;51.360;6.686;2023-04-01T15:54:38;11.10;93.80
42663;DHT22;44330;51.360;6.686;2023-04-01T16:00:29;11.10;94.30
42663;DHT22;44330;51.360;6.686;2023-04-01T16:05:48;11.10;94.50
42663;DHT22;44330;51.360;6.686;2023-04-01T16:08:51;11.20;94.30
42663;DHT22;44330;51.360;6.686;2023-04-01T16:11:41;11.20;94.30
42663;DHT22;44330;51.360;6.686;2023-04-01T16:17:25;11.20;94.00
42663;DHT22;44330;51.360;6.686;2023-04-01T16:22:35;11.20;94.00
42663;DHT22;44330;51.360;6.686;2023-04-01T16:30:45;11.20;94.30
42663;DHT22;44330;51.360;6.686;2023-04-01T16:44:26;11.30;94.10
42663;DHT22;44330;51.360;6.686;2023-04-01T16:46:54;11.20;94.40
42663;DHT22;44330;51.360;6.686;2023-04-01T16:50:05;11.10;94.60
42663;DHT22;44330;51.360;6.686;2023-04-01T16:55:20;11.20;94.20
42663;DHT22;44330;51.360;6.686;2023-04-01T16:58:33;11.10;94.20
42663;DHT22;44330;51.360;6.686;2023-04-01T17:01:07;11.10;94.10
42663;DHT22;44330;51.360;6.686;2023-04-01T17:03:45;11.10;94.00
42663;DHT22;44330;51.360;6.686;2023-04-01T17:06:31;11.10;94.20
42663;DHT22;44330;51.360;6.686;2023-04-01T17:11:49;11.00;94.40
42663;DHT22;44330;51.360;6.686;2023-04-01T17:19:54;11.00;94.70
42663;DHT22;44330;51.360;6.686;2023-04-01T17:22:34;11.00;94.60
42663;DHT22;44330;51.360;6.686;2023-04-01T17:28:09;11.00;94.80
42663;DHT22;44330;51.360;6.686;2023-04-01T17:36:16;10.90;94.60
42663;DHT22;44330;51.360;6.686;2023-04-01T17:41:57;10.90;94.90
42663;DHT22;44330;51.360;6.686;2023-04-01T17:47:41;10.80;94.90
42663;DHT22;44330;51.360;6.686;2023-04-01T17:50:33;10.70;95.10
42663;DHT22;44330;51.360;6.686;2023-04-01T17:56:17;10.70;95.20
42663;DHT22;44330;51.360;6.686;2023-04-01T17:58:51;10.70;95.30
42663;DHT22;44330;51.360;6.686;2023-04-01T18:04:10;10.70;95.50
42663;DHT22;44330;51.360;6.686;2023-04-01T18:07:22;10.70;95.50
42663;DHT22;44330;51.360;6.686;2023-04-01T18:12:56;10.60;95.70
42663;DHT22;44330;51.360;6.686;2023-04-01T18:18:37;10.60;95.80
42663;DHT22;44330;51.360;6.686;2023-04-01T18:21:41;10.60;95.90
42663;DHT22;44330;51.360;6.686;2023-04-01T18:24:40;10.60;95.90
42663;DHT22;44330;51.360;6.686;2023-04-01T18:27:15;10.60;96.00
42663;DHT22;44330;51.360;6.686;2023-04-01T18:30:01;10.70;96.00
42663;DHT22;44330;51.360;6.686;2023-04-01T18:32:49;10.60;96.00
42663;DHT22;44330;51.360;6.686;2023-04-01T18:38:06;10.60;96.10
42663;DHT22;44330;51.360;6.686;2023-04-01T18:40:40;10.60;96.00
42663;DHT22;44330;51.360;6.686;2023-04-01T18:43:30;10.60;95.90
42663;DHT22;44330;51.360;6.686;2023-04-01T18:49:05;10.60;95.90
42663;DHT22;44330;51.360;6.686;2023-04-01T18:51:53;10.60;95.80
42663;DHT22;44330;51.360;6.686;2023-04-01T18:57:18;10.60;95.80
42663;DHT22;44330;51.360;6.686;2023-04-01T18:59:50;10.50;95.90
42663;DHT22;44330;51.360;6.686;2023-04-01T19:02:29;10.50;96.00
42663;DHT22;44330;51.360;6.686;2023-04-01T19:12:51;10.40;96.20
42663;DHT22;44330;51.360;6.686;2023-04-01T19:15:27;10.50;96.00
42663;DHT22;44330;51.360;6.686;2023-04-01T19:26:12;10.40;96.20
42663;DHT22;44330;51.360;6.686;2023-04-01T19:28:46;10.40;96.20
42663;DHT22;44330;51.360;6.686;2023-04-01T19:34:42;10.30;96.20
42663;DHT22;44330;51.360;6.686;2023-04-01T19:37:35;10.20;96.30
42663;DHT22;44330;51.360;6.686;2023-04-01T19:46:20;10.20;96.80
42663;DHT22;44330;51.360;6.686;2023-04-01T19:49:16;10.20;97.00
42663;DHT22;44330;51.360;6.686;2023-04-01T19:59:40;10.20;97.40
42663;DHT22;44330;51.360;6.686;2023-04-01T20:04:48;10.20;97.40
42663;DHT22;44330;51.360;6.686;2023-04-01T20:07:24;10.20;97.30
42663;DHT22;44330;51.360;6.686;2023-04-01T20:10:09;10.10;97.00
42663;DHT22;44330;51.360;6.686;2023-04-01T20:15:34;10.10;96.90
42663;DHT22;44330;51.360;6.686;2023-04-01T20:18:17;10.10;96.90
42663;DHT22;44330;51.360;6.686;2023-04-01T20:21:06;10.10;96.90
42663;DHT22;44330;51.360;6.686;2023-04-01T20:26:28;10.10;96.80
42663;DHT22;44330;51.360;6.686;2023-04-01T20:29:19;10.10;96.40
42663;DHT22;44330;51.360;6.686;2023-04-01T20:32:06;10.10;96.10
42663;DHT22;44330;51.360;6.686;2023-04-01T20:34:51;10.00;96.20
42663;DHT22;44330;51.360;6.686;2023-04-01T20:42:56;9.80;96.00
42663;DHT22;44330;51.360;6.686;2023-04-01T20:45:51;9.70;95.90
42663;DHT22;44330;51.360;6.686;2023-04-01T20:48:51;9.70;95.90
42663;DHT22;44330;51.360;6.686;2023-04-01T20:51:29;9.70;95.60
42663;DHT22;44330;51.360;6.686;2023-04-01T21:14:28;9.50;95.60
42663;DHT22;44330;51.360;6.686;2023-04-01T21:22:32;9.40;95.60
42663;DHT22;44330;51.360;6.686;2023-04-01T21:30:51;9.20;95.50
42663;DHT22;44330;51.360;6.686;2023-04-01T21:54:03;9.00;95.50
42663;DHT22;44330;51.360;6.686;2023-04-01T21:56:57;8.90;95.60
42663;DHT22;44330;51.360;6.686;2023-04-01T21:59:40;8.80;95.80
42663;DHT22;44330;51.360;6.686;2023-04-01T22:02:26;8.80;96.30
42663;DHT22;44330;51.360;6.686;2023-04-01T22:13:06;8.70;96.40
42663;DHT22;44330;51.360;6.686;2023-04-01T22:18:34;8.70;96.20
42663;DHT22;44330;51.360;6.686;2023-04-01T22:21:12;8.60;96.30
42663;DHT22;44330;51.360;6.686;2023-04-01T22:26:31;8.60;96.60
42663;DHT22;44330;51.360;6.686;2023-04-01T22:32:22;8.40;96.80
42663;DHT22;44330;51.360;6.686;2023-04-01T22:37:19;8.40;96.80
42663;DHT22;44330;51.360;6.686;2023-04-01T22:40:11;8.30;96.70
42663;DHT22;44330;51.360;6.686;2023-04-01T22:42:57;8.30;96.70
42663;DHT22;44330;51.360;6.686;2023-04-01T22:48:27;8.30;96.30
42663;DHT22;44330;51.360;6.686;2023-04-01T22:51:05;8.20;96.20
42663;DHT22;44330;51.360;6.686;2023-04-01T22:56:47;8.10;96.00
42663;DHT22;44330;51.360;6.686;2023-04-01T22:59:25;8.10;95.80
42663;DHT22;44330;51.360;6.686;2023-04-01T23:01:57;8.10;95.90
42663;DHT22;44330;51.360;6.686;2023-04-01T23:04:31;8.00;96.20
42663;DHT22;44330;51.360;6.686;2023-04-01T23:07:00;8.00;96.30
42663;DHT22;44330;51.360;6.686;2023-04-01T23:09:33;8.00;96.40
42663;DHT22;44330;51.360;6.686;2023-04-01T23:12:06;8.00;96.40
42663;DHT22;44330;51.360;6.686;2023-04-01T23:15:00;7.90;96.80
42663;DHT22;44330;51.360;6.686;2023-04-01T23:20:25;7.80;94.90
42663;DHT22;44330;51.360;6.686;2023-04-01T23:25:36;7.70;94.50
42663;DHT22;44330;51.360;6.686;2023-04-01T23:33:31;7.60;95.40
42663;DHT22;44330;51.360;6.686;2023-04-01T23:35:58;7.70;95.80
42663;DHT22;44330;51.360;6.686;2023-04-01T23:38:37;7.70;96.10
42663;DHT22;44330;51.360;6.686;2023-04-01T23:41:04;7.70;96.20
42663;DHT22;44330;51.360;6.686;2023-04-01T23:43:33;7.60;96.20
42663;DHT22;44330;51.360;6.686;2023-04-01T23:46:02;7.60;96.20
42663;DHT22;44330;51.360;6.686;2023-04-01T23:48:35;7.60;96.40
42663;DHT22;44330;51.360;6.686;2023-04-01T23:51:02;7.50;96.50
42663;DHT22;44330;51.360;6.686;2023-04-01T23:53:33;7.50;96.70
42663;DHT22;44330;51.360;6.686;2023-04-01T23:56:01;7.50;96.70
42663;DHT22;44330;51.360;6.686;2023-04-01T23:58:47;7.50;96.60
